< Typhoon 197623 1976 Season Typhoon 197625 >
Typhoon 197624 (NORA)
General InformationTrack Information on Google Maps || Disaster Info.ResourceGoogle EarthGE AnimationAtom FeedGeoJSON
Detalied Best Track (Time Zone = UTC)
Year Month Day Hour Lat. Long. Pressure (hPa) Wind (kt) Class Image Chart
1976 12 2 00 9.0 131.0 1004 0 2 -- Chart
1976 12 2 06 10.0 130.0 1002 0 2 -- Chart
1976 12 2 12 11.0 129.0 1002 0 2 -- Chart
1976 12 2 18 11.5 128.4 1002 0 2 -- Chart
1976 12 3 00 11.8 127.6 1002 0 2 -- Chart
1976 12 3 06 11.8 127.0 1000 0 2 -- Chart
1976 12 3 12 11.9 126.6 1000 0 2 -- Chart
1976 12 3 18 12.3 126.4 998 0 9 -- Chart
1976 12 4 00 12.6 126.2 990 0 9 -- Chart
1976 12 4 06 12.8 125.8 990 0 9 -- Chart
1976 12 4 12 12.8 125.1 990 0 9 -- Chart
1976 12 4 18 12.4 124.5 990 0 9 -- Chart
1976 12 5 00 12.5 124.1 992 0 9 -- Chart
1976 12 5 06 12.6 123.6 992 0 9 -- Chart
1976 12 5 12 12.6 123.3 992 0 9 -- Chart
1976 12 5 18 12.7 123.1 992 0 9 -- Chart
1976 12 6 00 12.8 122.8 992 0 9 -- Chart
1976 12 6 06 12.8 122.6 994 0 9 -- Chart
1976 12 6 12 13.0 122.4 996 0 9 -- Chart
1976 12 6 18 13.2 122.4 996 0 9 -- Chart
1976 12 7 00 13.4 122.7 1000 0 2 -- Chart
1976 12 7 06 13.0 123.0 1004 0 2 -- Chart
Japan Meteorological Agency Best Track Data | Correction Date : 1992-10-21
< Typhoon 197623 1976 Season Typhoon 197625 >

Help